Terminal Aerodrome Forecast
Issued by NWS North Platte, NE

Home | Current Version | Previous Version | Graphics & Text | Print | Product List | Glossary On
Versions: 1 2 3 4 5 6 7 8 9 10 11 12 13 14 15 16 17 18 19 20 21 22 23 24
000
FTUS43 KLBF 281200 AAA
TAFVTN
TAF AMD
KVTN 281222Z 2812/2912 VRB06KT 6SM BR BKN014
      TEMPO 2812/2816 2SM BR OVC003
     FM281600 36008KT P6SM SCT015 OVC050
      TEMPO 2818/2822 -SHRA OVC050
     FM282200 03007KT P6SM OVC050
     FM290200 VRB06KT P6SM BKN250=

USA.gov is the U.S. government's official web portal to all federal, state and local government web resources and services.